Time;durP1;ratioP1;P1;durP2;ratioP2;P2;SDS_P1;SDS_P2;PMS_P1;PMS_P2;Temp;Humidity;BMP_temperature;BMP_pressure;BME280_temperature;BME280_humidity;BME280_pressure;Samples;Min_cycle;Max_cycle;Signal;HPM_P1;HPM_P2
2021/12/05 00:22:24;;;;;;;3.75;2.30;;;11.80;61.40;;;;;;4999964;28;20018;-71
2021/12/05 00:24:54;;;;;;;3.72;2.45;;;11.80;61.40;;;;;;5000007;28;20041;-71
2021/12/05 00:27:25;;;;;;;2.88;2.03;;;11.80;61.50;;;;;;4999867;28;20026;-72
2021/12/05 00:30:08;;;;;;;3.22;2.30;;;11.80;62.10;;;;;;5014930;28;20098;-70
2021/12/05 01:14:28;;;;;;;3.40;2.13;;;11.80;61.40;;;;;;5003128;28;20037;-71
2021/12/05 01:16:55;;;;;;;3.33;2.42;;;11.80;61.40;;;;;;5003070;28;20014;-72
2021/12/05 01:19:22;;;;;;;2.55;2.30;;;11.80;61.50;;;;;;5001828;28;20037;-71
2021/12/05 01:21:51;;;;;;;3.20;2.25;;;11.80;61.50;;;;;;5002883;28;20038;-71
2021/12/05 01:32:42;;;;;;;;;;;11.80;61.50;;;;;;5003202;28;20046;-70
2021/12/05 01:35:25;;;;;;;3.75;2.38;;;11.80;61.50;;;;;;5002727;28;19976;-71
2021/12/05 01:38:11;;;;;;;3.33;2.38;;;11.80;61.60;;;;;;5002647;28;20026;-69
2021/12/05 01:40:49;;;;;;;3.08;2.47;;;11.70;61.50;;;;;;5002575;28;20026;-70
2021/12/05 01:51:52;;;;;;;3.63;2.50;;;11.80;61.50;;;;;;4961380;29;20339;-71
2021/12/05 02:38:13;;;;;;;2.80;1.95;;;11.70;61.60;;;;;;4982324;28;20033;-71
2021/12/05 02:43:33;;;;;;;3.08;2.38;;;11.70;61.60;;;;;;4982217;28;20062;-71
2021/12/05 02:46:02;;;;;;;3.15;2.30;;;11.70;61.50;;;;;;4982027;28;20427;-71
2021/12/05 02:48:30;;;;;;;3.08;2.03;;;11.80;61.60;;;;;;4981942;28;20031;-71
2021/12/05 02:51:00;;;;;;;5.70;2.50;;;11.80;61.70;;;;;;4981839;28;20026;-71
2021/12/05 02:53:38;;;;;;;2.78;1.95;;;11.70;61.60;;;;;;4985999;28;20058;-72
2021/12/05 02:56:05;;;;;;;2.50;2.00;;;11.70;61.60;;;;;;5001269;28;20049;-72
2021/12/05 02:58:50;;;;;;;3.95;2.40;;;11.70;61.60;;;;;;5001161;28;20033;-71
2021/12/05 03:01:30;;;;;;;3.50;2.20;;;11.70;61.60;;;;;;4999841;28;20018;-71
2021/12/05 03:03:57;;;;;;;2.45;2.05;;;11.80;61.60;;;;;;5001037;28;20340;-71
2021/12/05 03:06:26;;;;;;;2.83;2.20;;;11.80;61.60;;;;;;5000916;28;20033;-70
2021/12/05 03:09:02;;;;;;;3.20;2.30;;;11.70;61.60;;;;;;5000982;28;20029;-71
2021/12/05 03:11:29;;;;;;;2.92;1.98;;;11.70;62.20;;;;;;5000701;28;20091;-72
2021/12/05 03:13:55;;;;;;;2.85;2.15;;;11.70;61.60;;;;;;5015603;28;20102;-72
2021/12/05 03:16:22;;;;;;;4.18;2.65;;;11.70;61.60;;;;;;5000841;28;20023;-70
2021/12/05 03:18:48;;;;;;;3.25;2.67;;;11.70;61.60;;;;;;4999468;28;20038;-72
2021/12/05 03:21:15;;;;;;;3.15;2.35;;;11.70;61.60;;;;;;5000601;28;20082;-71
2021/12/05 03:23:43;;;;;;;3.45;2.20;;;11.70;62.30;;;;;;5000704;28;20018;-72
2021/12/05 03:26:13;;;;;;;2.60;2.03;;;11.70;61.60;;;;;;5000635;28;20064;-72
2021/12/05 03:28:39;;;;;;;3.38;2.53;;;11.70;61.60;;;;;;5000908;28;20331;-71
2021/12/05 03:31:06;;;;;;;3.50;2.20;;;11.80;61.60;;;;;;5000514;28;20218;-71
2021/12/05 03:33:35;;;;;;;2.47;2.17;;;11.70;61.50;;;;;;4999267;28;20034;-72
2021/12/05 03:36:01;;;;;;;2.72;2.17;;;11.70;61.50;;;;;;5000583;28;20337;-71
2021/12/05 03:38:27;;;;;;;3.75;2.33;;;11.70;61.60;;;;;;5000483;28;20062;-70
2021/12/05 03:40:53;;;;;;;2.47;2.10;;;11.70;61.50;;;;;;5000275;28;20604;-71
2021/12/05 03:43:20;;;;;;;4.18;2.42;;;11.70;61.50;;;;;;5000418;28;20014;-71
2021/12/05 03:45:53;;;;;;;5.05;2.67;;;11.70;61.50;;;;;;5000337;28;20037;-71
2021/12/05 03:48:21;;;;;;;2.95;2.38;;;11.70;62.20;;;;;;5000407;28;20163;-72
2021/12/05 03:50:48;;;;;;;2.28;2.05;;;11.70;61.60;;;;;;4999181;28;20019;-71
2021/12/05 03:53:15;;;;;;;3.03;2.22;;;11.70;61.70;;;;;;5000004;28;20061;-71
2021/12/05 03:55:43;;;;;;;2.60;2.25;;;11.70;61.70;;;;;;5000277;28;20045;-72
2021/12/05 03:58:09;;;;;;;2.97;2.27;;;11.70;61.70;;;;;;5015337;28;20018;-71
2021/12/05 04:00:39;;;;;;;3.05;2.08;;;11.70;62.30;;;;;;5000132;28;20041;-72
2021/12/05 04:03:08;;;;;;;3.63;2.05;;;11.70;61.70;;;;;;4998833;28;20265;-71
2021/12/05 04:05:34;;;;;;;3.22;2.22;;;11.70;61.60;;;;;;5000074;28;20042;-71
2021/12/05 04:08:02;;;;;;;2.78;2.42;;;11.70;61.60;;;;;;5000121;28;20069;-71
2021/12/05 04:10:29;;;;;;;2.60;2.10;;;11.70;61.50;;;;;;5000193;28;20022;-72
2021/12/05 04:12:57;;;;;;;1.73;1.63;;;11.70;61.60;;;;;;5000132;28;20084;-73
2021/12/05 04:15:23;;;;;;;2.65;2.13;;;11.70;61.60;;;;;;5015079;28;20102;-73
2021/12/05 04:17:49;;;;;;;3.38;2.22;;;11.70;61.60;;;;;;5015155;28;20021;-72
2021/12/05 04:20:17;;;;;;;2.72;2.30;;;11.70;61.60;;;;;;4999944;28;20046;-72
2021/12/05 04:22:43;;;;;;;2.92;2.63;;;11.70;61.60;;;;;;4999846;28;20022;-71
2021/12/05 04:25:11;;;;;;;2.42;1.92;;;11.70;61.60;;;;;;5018956;28;20097;-71
2021/12/05 04:27:39;;;;;;;3.45;2.28;;;11.60;61.60;;;;;;5003971;28;20075;-71
2021/12/05 04:30:08;;;;;;;2.55;1.90;;;11.60;61.70;;;;;;5018934;28;20030;-72
2021/12/05 04:32:34;;;;;;;2.95;2.25;;;11.70;61.80;;;;;;5003789;28;20031;-71
2021/12/05 04:35:00;;;;;;;2.88;2.03;;;11.70;61.80;;;;;;5002546;28;20041;-72
2021/12/05 04:37:26;;;;;;;2.70;2.33;;;11.70;61.70;;;;;;5002520;28;20222;-72
2021/12/05 04:39:52;;;;;;;3.40;2.42;;;11.60;61.70;;;;;;5018814;28;20093;-72
2021/12/05 04:42:18;;;;;;;3.42;2.53;;;11.70;61.70;;;;;;5003677;28;20049;-71
2021/12/05 04:44:44;;;;;;;3.55;2.20;;;11.70;61.60;;;;;;5002273;28;20014;-72
2021/12/05 04:47:10;;;;;;;2.40;1.90;;;11.70;61.60;;;;;;5003670;28;20022;-71
2021/12/05 04:49:39;;;;;;;3.03;2.25;;;11.70;61.60;;;;;;5003553;28;20019;-72
2021/12/05 04:52:06;;;;;;;3.75;2.60;;;11.70;61.60;;;;;;5003491;28;20022;-72
2021/12/05 04:54:33;;;;;;;2.83;2.30;;;11.70;61.70;;;;;;5003399;28;20136;-72
2021/12/05 04:56:59;;;;;;;3.22;2.40;;;11.70;61.60;;;;;;5003555;28;20058;-72
2021/12/05 04:59:26;;;;;;;2.92;2.30;;;11.70;61.70;;;;;;5003463;28;20355;-73
2021/12/05 05:01:57;;;;;;;3.30;2.08;;;11.70;61.70;;;;;;5003187;28;20026;-72
2021/12/05 05:04:26;;;;;;;2.72;2.38;;;11.60;61.60;;;;;;5003361;28;20018;-72
2021/12/05 05:06:56;;;;;;;2.53;1.90;;;11.60;61.70;;;;;;5003223;28;20025;-71
2021/12/05 05:09:22;;;;;;;2.88;2.35;;;11.70;61.70;;;;;;5003823;28;20064;-71
2021/12/05 05:11:48;;;;;;;2.28;2.05;;;11.60;61.70;;;;;;5018341;28;20346;-72
2021/12/05 05:14:14;;;;;;;3.22;2.60;;;11.60;61.70;;;;;;5003128;28;20033;-71
2021/12/05 05:16:43;;;;;;;3.30;2.33;;;11.70;61.80;;;;;;5002298;28;20058;-72
2021/12/05 05:19:11;;;;;;;2.42;1.90;;;11.70;61.80;;;;;;5018321;28;20258;-71
2021/12/05 05:21:59;;;;;;;2.80;2.47;;;11.60;61.70;;;;;;5003021;28;20024;-70
2021/12/05 05:40:38;;;;;;;2.47;2.17;;;11.60;61.70;;;;;;5002678;28;20065;-71
2021/12/05 05:43:29;;;;;;;3.28;2.22;;;11.60;61.70;;;;;;5002710;28;20268;-71
2021/12/05 05:46:07;;;;;;;2.95;2.08;;;11.60;61.80;;;;;;5002659;28;20023;-73
2021/12/05 05:51:03;;;;;;;;;;;11.60;61.80;;;;;;5003271;28;20341;-71
2021/12/05 05:53:29;;;;;;;3.03;2.30;;;11.60;61.70;;;;;;5017428;28;20319;-71
2021/12/05 05:55:56;;;;;;;2.88;2.30;;;11.60;61.80;;;;;;5002561;28;20368;-71
2021/12/05 05:58:28;;;;;;;2.60;2.13;;;11.60;61.70;;;;;;5001151;28;20210;-72
2021/12/05 06:03:25;;;;;;;3.22;2.38;;;11.70;61.70;;;;;;5002377;28;20014;-70
2021/12/05 06:05:58;;;;;;;2.25;2.05;;;11.60;61.70;;;;;;5002305;28;20068;-71
2021/12/05 06:08:27;;;;;;;2.45;2.10;;;11.70;61.70;;;;;;5002270;28;20022;-72
2021/12/05 06:10:55;;;;;;;2.83;2.00;;;11.60;61.70;;;;;;5002121;28;20041;-72
2021/12/05 06:13:21;;;;;;;2.40;2.10;;;11.60;61.70;;;;;;5002247;28;20076;-72
2021/12/05 06:15:48;;;;;;;3.10;2.45;;;11.60;61.80;;;;;;5002162;28;20018;-72
2021/12/05 06:18:14;;;;;;;3.13;2.20;;;11.60;61.70;;;;;;5001992;28;20226;-72
2021/12/05 06:20:41;;;;;;;3.63;2.35;;;11.60;61.70;;;;;;5001920;28;20065;-71
2021/12/05 06:23:07;;;;;;;2.85;2.30;;;11.60;61.80;;;;;;5001959;28;20184;-72
2021/12/05 06:25:36;;;;;;;3.17;1.98;;;11.60;61.80;;;;;;5001983;28;20026;-72
2021/12/05 06:28:08;;;;;;;2.75;2.00;;;11.60;61.90;;;;;;5001861;28;20046;-72
2021/12/05 06:30:51;;;;;;;2.75;2.00;;;11.60;61.80;;;;;;5001865;28;20037;-72
2021/12/05 06:39:21;;;;;;;3.30;2.30;;;11.70;61.80;;;;;;5001829;28;20052;-70
2021/12/05 06:47:24;;;;;;;3.35;2.50;;;11.60;61.60;;;;;;5000677;28;20025;-71
2021/12/05 06:49:55;;;;;;;2.67;2.22;;;11.70;61.70;;;;;;5016648;28;20026;-72
2021/12/05 06:52:21;;;;;;;2.70;2.05;;;11.60;61.60;;;;;;5001561;28;20026;-72
2021/12/05 06:54:47;;;;;;;2.30;1.80;;;11.70;61.70;;;;;;5000048;28;20054;-71
2021/12/05 06:57:13;;;;;;;3.25;2.10;;;11.70;61.70;;;;;;5016420;28;20501;-72
2021/12/05 06:59:41;;;;;;;2.50;2.10;;;11.70;61.70;;;;;;5001368;28;20026;-71
2021/12/05 07:02:09;;;;;;;2.65;2.45;;;11.70;61.70;;;;;;5016314;28;20050;-72
2021/12/05 07:07:28;;;;;;;3.55;2.45;;;11.60;61.60;;;;;;5001532;28;20061;-71
2021/12/05 07:09:54;;;;;;;2.80;2.20;;;11.70;61.70;;;;;;5016241;28;20022;-71
2021/12/05 07:20:11;;;;;;;2.60;2.20;;;11.70;61.50;;;;;;5001272;28;20061;-70
2021/12/05 07:23:06;;;;;;;2.45;1.85;;;11.70;61.50;;;;;;5000918;28;20030;-71
2021/12/05 07:25:38;;;;;;;4.10;2.72;;;11.70;61.50;;;;;;5001759;28;20114;-70
2021/12/05 07:42:04;;;;;;;3.58;2.15;;;11.70;61.30;;;;;;5000582;28;20037;-72
2021/12/05 07:44:31;;;;;;;3.20;2.28;;;11.80;61.40;;;;;;5000692;28;20022;-71
2021/12/05 07:46:57;;;;;;;2.47;2.00;;;11.70;61.30;;;;;;5015667;28;20018;-71
2021/12/05 07:49:23;;;;;;;3.08;2.17;;;11.70;61.30;;;;;;5000496;28;20548;-71
2021/12/05 07:51:50;;;;;;;3.10;2.17;;;11.70;61.40;;;;;;4999305;28;20034;-71
2021/12/05 07:57:02;;;;;;;3.28;2.28;;;11.70;61.40;;;;;;5000654;28;20030;-71
2021/12/05 07:59:56;;;;;;;3.70;2.65;;;11.70;61.40;;;;;;5000153;28;20028;-72
2021/12/05 08:16:11;;;;;;;3.10;2.58;;;11.70;61.50;;;;;;5000243;28;20024;-72
2021/12/05 08:18:37;;;;;;;2.65;2.28;;;11.70;61.50;;;;;;5000121;28;20021;-71
2021/12/05 08:21:05;;;;;;;3.05;2.50;;;11.70;61.40;;;;;;5000115;28;20030;-71
2021/12/05 08:23:31;;;;;;;2.88;2.20;;;11.70;61.40;;;;;;5000213;28;20026;-72
2021/12/05 08:26:09;;;;;;;3.00;2.03;;;11.80;62.10;;;;;;5000087;28;20213;-72
2021/12/05 08:31:33;;;;;;;2.58;2.25;;;11.70;61.40;;;;;;5000324;28;20385;-72
2021/12/05 08:34:21;;;;;;;2.35;2.15;;;11.70;61.50;;;;;;5000007;28;20033;-72
2021/12/05 09:23:42;;;;;;;3.70;2.83;;;11.80;61.20;;;;;;5003058;28;20037;-72
2021/12/05 09:31:23;;;;;;;4.28;3.03;;;11.70;61.30;;;;;;5003161;28;20037;-71
2021/12/05 10:12:20;;;;;;;3.53;2.70;;;11.80;61.30;;;;;;5002128;28;20222;-71
2021/12/05 10:34:50;;;;;;;3.67;2.63;;;11.80;61.30;;;;;;5001745;28;20364;-72
2021/12/05 10:37:24;;;;;;;3.85;2.80;;;11.80;61.20;;;;;;5002169;28;20073;-71
2021/12/05 10:40:05;;;;;;;3.83;2.75;;;11.80;61.20;;;;;;5000632;28;20080;-71
2021/12/05 10:42:44;;;;;;;3.72;2.97;;;11.80;61.10;;;;;;5001606;28;20037;-71
2021/12/05 10:45:19;;;;;;;3.22;2.60;;;11.80;61.20;;;;;;5001761;28;20118;-70
2021/12/05 10:47:47;;;;;;;2.75;2.28;;;11.80;61.10;;;;;;5000222;28;20036;-71
2021/12/05 10:50:36;;;;;;;3.67;2.85;;;11.80;61.10;;;;;;5016419;28;20034;-70
2021/12/05 10:53:34;;;;;;;2.53;2.15;;;11.80;61.20;;;;;;5001124;28;20046;-72
2021/12/05 10:56:09;;;;;;;2.65;2.30;;;11.80;61.20;;;;;;5001316;28;20084;-72
2021/12/05 10:58:53;;;;;;;3.30;2.40;;;11.80;61.20;;;;;;5001160;28;20030;-72
2021/12/05 11:01:26;;;;;;;3.95;2.92;;;11.80;61.20;;;;;;4999962;28;20030;-73
2021/12/05 11:04:03;;;;;;;3.38;2.03;;;11.80;61.20;;;;;;5001043;28;20014;-71
2021/12/05 11:06:40;;;;;;;3.58;2.50;;;11.80;61.20;;;;;;4999846;28;20097;-70
2021/12/05 11:09:36;;;;;;;2.92;2.28;;;11.80;61.20;;;;;;5000914;28;20029;-72
2021/12/05 11:12:08;;;;;;;3.25;2.30;;;11.80;61.20;;;;;;4992678;28;20054;-71
2021/12/05 11:14:50;;;;;;;3.33;2.63;;;11.80;61.20;;;;;;5000889;28;20019;-72
2021/12/05 11:17:30;;;;;;;3.60;2.50;;;11.80;61.10;;;;;;5000815;28;20152;-72
2021/12/05 11:20:09;;;;;;;3.92;2.63;;;11.90;61.00;;;;;;5000791;28;20027;-72
2021/12/05 11:22:36;;;;;;;;;;;11.90;61.00;;;;;;5001450;28;20029;-71
2021/12/05 11:25:40;;;;;;;3.40;2.50;;;11.90;61.00;;;;;;5000739;28;19902;-72
2021/12/05 11:28:08;;;;;;;3.50;2.85;;;11.90;61.10;;;;;;4989528;28;20062;-72
2021/12/05 11:30:37;;;;;;;4.78;2.83;;;11.90;61.10;;;;;;5000743;28;20026;-72
2021/12/05 11:33:18;;;;;;;3.65;2.78;;;11.80;61.10;;;;;;5015251;28;20030;-72
2021/12/05 11:35:51;;;;;;;3.28;2.35;;;11.90;61.10;;;;;;5015665;28;20354;-71
2021/12/05 11:38:21;;;;;;;3.28;2.65;;;11.90;61.10;;;;;;5000584;28;20054;-71
2021/12/05 11:41:02;;;;;;;3.80;2.88;;;11.80;61.00;;;;;;5000424;28;20026;-71
2021/12/05 11:43:33;;;;;;;3.55;2.70;;;11.90;61.10;;;;;;4999270;28;20357;-71
2021/12/05 11:46:04;;;;;;;4.60;3.20;;;11.90;61.10;;;;;;5000421;28;20026;-72
2021/12/05 11:48:43;;;;;;;4.65;3.03;;;11.80;61.70;;;;;;5000323;28;20022;-73
2021/12/05 11:51:21;;;;;;;;;;;11.80;61.00;;;;;;5016008;28;20041;-72
2021/12/05 11:53:49;;;;;;;3.83;2.80;;;11.90;61.20;;;;;;5000134;28;20193;-72
2021/12/05 11:56:22;;;;;;;3.88;2.83;;;11.80;61.10;;;;;;5000464;28;20089;-72
2021/12/05 11:59:12;;;;;;;3.58;2.60;;;11.80;61.00;;;;;;4999045;28;20230;-71
2021/12/05 12:01:46;;;;;;;3.95;2.90;;;11.80;61.00;;;;;;5000099;28;20061;-71
2021/12/05 12:04:15;;;;;;;2.95;2.45;;;11.80;61.00;;;;;;5000165;28;20068;-72
2021/12/05 12:06:43;;;;;;;4.95;2.90;;;11.80;61.10;;;;;;4999687;28;20178;-70
2021/12/05 12:09:09;;;;;;;3.63;2.88;;;11.90;61.10;;;;;;5000113;28;20014;-72
2021/12/05 12:11:35;;;;;;;3.53;2.95;;;11.80;61.10;;;;;;5015176;28;20329;-73
2021/12/05 12:14:02;;;;;;;2.60;2.30;;;11.80;61.20;;;;;;4998794;28;20026;-72
2021/12/05 12:16:33;;;;;;;2.80;2.50;;;11.80;61.10;;;;;;5000040;28;20093;-72
2021/12/05 12:19:00;;;;;;;3.88;2.92;;;11.80;61.10;;;;;;5000058;28;20105;-72
2021/12/05 12:21:37;;;;;;;3.58;2.95;;;11.80;61.20;;;;;;4999958;28;20332;-72
2021/12/05 12:24:04;;;;;;;3.90;2.92;;;11.90;61.20;;;;;;5000156;28;20029;-71
2021/12/05 12:26:30;;;;;;;3.50;2.67;;;11.80;61.20;;;;;;4999920;28;20025;-71
2021/12/05 12:28:57;;;;;;;3.80;2.92;;;11.90;61.10;;;;;;4999867;28;20030;-72
2021/12/05 12:31:34;;;;;;;3.83;2.65;;;11.90;61.10;;;;;;5000045;28;20033;-71
2021/12/05 12:34:09;;;;;;;4.30;2.65;;;11.80;61.10;;;;;;4999008;28;20034;-72
2021/12/05 12:36:38;;;;;;;4.10;2.97;;;11.80;61.20;;;;;;4999906;28;20061;-71
2021/12/05 12:39:49;;;;;;;4.78;2.72;;;11.80;61.20;;;;;;4999800;28;20026;-72
2021/12/05 12:42:19;;;;;;;2.97;2.45;;;11.80;61.20;;;;;;4996952;28;20076;-72
2021/12/05 12:45:12;;;;;;;4.22;2.78;;;11.80;61.10;;;;;;5014987;28;20512;-72
2021/12/05 12:47:55;;;;;;;3.78;2.72;;;11.80;61.00;;;;;;5003686;28;20433;-72
2021/12/05 12:50:35;;;;;;;2.67;2.30;;;11.80;61.10;;;;;;5002440;28;20022;-72
2021/12/05 12:53:29;;;;;;;3.28;2.30;;;11.80;61.10;;;;;;5003440;28;20037;-72
2021/12/05 12:56:09;;;;;;;4.13;2.80;;;11.80;61.20;;;;;;5018502;28;20038;-71
2021/12/05 12:58:49;;;;;;;3.67;2.97;;;11.80;61.20;;;;;;5003431;28;20022;-71
2021/12/05 13:10:00;;;;;;;3.05;2.30;;;11.80;61.20;;;;;;4990198;28;20337;-71
2021/12/05 13:10:09;;;;;;;3.22;2.67;;;11.80;61.20;;;;;;5003244;28;20041;-71
2021/12/05 13:12:41;;;;;;;2.50;2.30;;;11.80;61.80;;;;;;5001912;28;20029;-72
2021/12/05 13:15:22;;;;;;;2.58;2.30;;;11.80;61.20;;;;;;5003147;28;20018;-72
2021/12/05 13:17:52;;;;;;;3.42;2.75;;;11.80;61.20;;;;;;5003195;28;20098;-73
2021/12/05 13:20:24;;;;;;;4.43;2.63;;;11.80;61.10;;;;;;5003068;28;20037;-72
2021/12/05 13:23:14;;;;;;;3.13;2.75;;;11.80;61.10;;;;;;5018100;28;20132;-71
2021/12/05 13:26:09;;;;;;;3.08;2.55;;;11.80;61.10;;;;;;5003064;28;20015;-71
2021/12/05 13:28:35;;;;;;;2.83;2.45;;;11.80;61.10;;;;;;5002853;28;20026;-71
2021/12/05 13:31:26;;;;;;;3.22;2.78;;;11.80;61.20;;;;;;5002898;28;20022;-72
2021/12/05 13:34:32;;;;;;;2.83;2.42;;;11.80;61.20;;;;;;5002750;28;20030;-71
2021/12/05 13:37:08;;;;;;;3.60;2.22;;;11.80;61.10;;;;;;5002861;28;20027;-72
2021/12/05 13:40:11;;;;;;;3.50;2.65;;;11.80;61.20;;;;;;5002641;28;20324;-72
2021/12/05 13:42:42;;;;;;;3.83;2.42;;;11.80;61.20;;;;;;5001338;28;20032;-71
2021/12/05 13:45:21;;;;;;;3.72;2.28;;;11.80;61.20;;;;;;5002716;28;20030;-71
2021/12/05 13:47:52;;;;;;;3.75;2.85;;;11.80;61.20;;;;;;5001427;28;20014;-71
2021/12/05 13:52:47;;;;;;;3.63;2.72;;;11.80;61.10;;;;;;5002743;28;20307;-71
2021/12/05 13:55:46;;;;;;;3.13;2.78;;;11.80;61.20;;;;;;5002294;28;20054;-71
2021/12/05 13:58:27;;;;;;;3.47;2.30;;;11.90;61.20;;;;;;5000992;28;20064;-72
2021/12/05 14:01:05;;;;;;;2.85;2.53;;;11.80;61.10;;;;;;5002229;28;20329;-71
2021/12/05 14:03:51;;;;;;;3.15;2.63;;;11.80;61.10;;;;;;5002279;28;20022;-72
2021/12/05 14:06:57;;;;;;;2.40;2.20;;;11.80;61.10;;;;;;5002255;28;20021;-71
2021/12/05 14:09:48;;;;;;;4.15;2.85;;;11.80;61.20;;;;;;5017208;28;20029;-71
2021/12/05 14:12:37;;;;;;;3.38;3.00;;;11.80;61.20;;;;;;5002100;28;20018;-71
2021/12/05 14:15:07;;;;;;;3.40;2.42;;;11.80;61.20;;;;;;5000826;28;20053;-72
2021/12/05 14:17:35;;;;;;;3.17;2.38;;;11.80;61.10;;;;;;5001937;28;20025;-71
2021/12/05 14:20:11;;;;;;;5.00;2.60;;;11.80;61.20;;;;;;5000807;28;20022;-71
2021/12/05 14:22:38;;;;;;;3.22;2.50;;;11.80;61.20;;;;;;5001852;28;20310;-71
2021/12/05 14:25:12;;;;;;;3.97;2.60;;;11.80;61.20;;;;;;5001824;28;20265;-71
2021/12/05 14:27:51;;;;;;;3.30;2.55;;;11.80;61.30;;;;;;5001897;28;20379;-71
2021/12/05 14:30:21;;;;;;;3.80;2.85;;;11.80;61.30;;;;;;5001725;28;20026;-71
2021/12/05 14:32:50;;;;;;;3.97;3.00;;;11.80;61.20;;;;;;5001721;28;20050;-72
2021/12/05 14:35:28;;;;;;;3.15;2.63;;;11.80;61.20;;;;;;5001695;28;20014;-71
2021/12/05 14:37:54;;;;;;;3.40;2.45;;;11.80;61.20;;;;;;5001646;28;20022;-71
2021/12/05 14:40:25;;;;;;;4.80;3.17;;;11.80;61.30;;;;;;5001599;28;20037;-72
2021/12/05 14:42:51;;;;;;;4.00;2.65;;;11.80;61.30;;;;;;5001528;28;20101;-71
2021/12/05 14:45:23;;;;;;;4.35;2.50;;;11.80;61.30;;;;;;5001578;28;20223;-71
2021/12/05 14:47:51;;;;;;;2.85;2.33;;;11.80;61.30;;;;;;5001572;28;20018;-72
2021/12/05 14:50:21;;;;;;;3.30;2.35;;;11.80;61.30;;;;;;5001392;28;20029;-71
2021/12/05 14:52:49;;;;;;;3.17;2.47;;;11.80;61.40;;;;;;5001338;28;20050;-71
2021/12/05 14:55:18;;;;;;;2.80;2.45;;;11.70;61.30;;;;;;4999847;28;20058;-70
2021/12/05 14:57:59;;;;;;;2.97;2.38;;;11.70;61.30;;;;;;5001281;28;20057;-71
2021/12/05 15:00:27;;;;;;;3.70;2.75;;;11.70;62.00;;;;;;5000028;28;20314;-72
2021/12/05 15:03:01;;;;;;;3.20;2.42;;;11.70;61.40;;;;;;5000965;28;20034;-71
2021/12/05 15:05:27;;;;;;;3.10;2.28;;;11.80;61.40;;;;;;5000995;28;20026;-71
2021/12/05 15:08:10;;;;;;;3.13;2.55;;;11.70;61.40;;;;;;5015324;28;20096;-71
2021/12/05 15:10:37;;;;;;;2.50;2.10;;;11.70;61.40;;;;;;5001035;28;20061;-72
2021/12/05 15:13:04;;;;;;;3.35;2.70;;;11.70;61.40;;;;;;5000957;28;20093;-71
2021/12/05 15:15:30;;;;;;;3.25;2.53;;;11.70;61.30;;;;;;5000890;28;20028;-71
2021/12/05 15:17:56;;;;;;;3.92;3.03;;;11.70;61.30;;;;;;5016279;28;20018;-72
2021/12/05 15:20:26;;;;;;;3.13;2.55;;;11.70;61.40;;;;;;4999626;28;20049;-71
2021/12/05 15:22:58;;;;;;;3.05;2.70;;;11.70;61.40;;;;;;5000705;28;20040;-73
2021/12/05 15:25:29;;;;;;;3.67;2.38;;;11.70;61.50;;;;;;5000761;28;20041;-71
2021/12/05 15:27:56;;;;;;;3.38;2.75;;;11.70;61.50;;;;;;5000698;28;20057;-72
2021/12/05 15:30:26;;;;;;;2.92;2.50;;;11.70;61.40;;;;;;4999450;28;20020;-71
2021/12/05 15:32:55;;;;;;;3.53;2.67;;;11.70;61.50;;;;;;5000468;28;20036;-70
2021/12/05 15:35:22;;;;;;;4.13;3.00;;;11.70;61.40;;;;;;5000677;28;20054;-71
2021/12/05 15:38:01;;;;;;;2.63;2.20;;;11.70;61.50;;;;;;4999266;28;20398;-71
2021/12/05 15:40:29;;;;;;;3.22;2.35;;;11.70;61.60;;;;;;5000504;28;20034;-71
2021/12/05 15:43:08;;;;;;;3.05;2.75;;;11.70;61.60;;;;;;5000370;28;20368;-71
2021/12/05 15:45:35;;;;;;;3.67;2.40;;;11.70;61.50;;;;;;5000630;28;20014;-72
2021/12/05 15:48:01;;;;;;;2.80;2.03;;;11.70;61.50;;;;;;5000362;28;20091;-71
2021/12/05 15:50:30;;;;;;;3.55;2.67;;;11.70;61.50;;;;;;5000306;28;20112;-72
2021/12/05 15:53:03;;;;;;;3.42;3.05;;;11.60;61.50;;;;;;5015268;28;20026;-72
2021/12/05 15:55:38;;;;;;;3.45;2.70;;;11.70;61.50;;;;;;5000421;28;20034;-71
2021/12/05 15:58:08;;;;;;;4.18;2.63;;;11.70;61.50;;;;;;5000210;28;20030;-72
2021/12/05 16:00:41;;;;;;;3.72;2.45;;;11.60;61.50;;;;;;5000232;28;20026;-71
2021/12/05 16:03:23;;;;;;;3.90;2.78;;;11.70;61.50;;;;;;5000170;28;20019;-72
2021/12/05 16:06:08;;;;;;;3.85;2.53;;;11.60;61.50;;;;;;5000250;28;20014;-71
2021/12/05 16:08:34;;;;;;;3.47;2.70;;;11.70;61.50;;;;;;5000092;28;20026;-71
2021/12/05 16:11:00;;;;;;;3.15;2.10;;;11.70;61.60;;;;;;5015253;28;20178;-71
2021/12/05 16:13:33;;;;;;;2.83;2.33;;;11.60;61.60;;;;;;5000101;28;20153;-72
2021/12/05 16:16:10;;;;;;;3.25;2.50;;;11.70;61.60;;;;;;5000090;28;20336;-71
2021/12/05 16:18:37;;;;;;;2.72;2.40;;;11.60;61.70;;;;;;5000413;28;20033;-71
2021/12/05 16:21:13;;;;;;;3.47;2.38;;;11.60;61.70;;;;;;5003719;28;20046;-71
2021/12/05 16:23:39;;;;;;;3.97;2.78;;;11.60;61.60;;;;;;5004202;28;20023;-71
2021/12/05 16:26:19;;;;;;;3.08;2.42;;;11.60;61.70;;;;;;5004020;28;20026;-72
2021/12/05 16:28:47;;;;;;;3.90;2.78;;;11.70;61.60;;;;;;5003964;28;20065;-72
2021/12/05 16:31:15;;;;;;;3.88;3.05;;;11.60;61.60;;;;;;5003955;28;20026;-72
2021/12/05 16:33:44;;;;;;;3.63;2.80;;;11.70;61.70;;;;;;5004078;28;20318;-71
2021/12/05 16:36:09;;;;;;;;;;;11.60;61.70;;;;;;5004337;28;20599;-73
2021/12/05 16:38:41;;;;;;;3.67;2.53;;;11.60;61.70;;;;;;5003806;28;19909;-73
2021/12/05 16:41:07;;;;;;;3.00;2.65;;;11.60;61.60;;;;;;5003795;28;20084;-71
2021/12/05 16:43:38;;;;;;;3.22;2.70;;;11.60;61.70;;;;;;5003746;28;20022;-72
2021/12/05 16:46:09;;;;;;;3.22;2.55;;;11.60;61.60;;;;;;5003736;28;20471;-73
2021/12/05 16:48:37;;;;;;;4.05;2.92;;;11.60;61.70;;;;;;5018845;28;20026;-72
2021/12/05 16:51:14;;;;;;;3.47;2.47;;;11.60;61.70;;;;;;5003627;28;20026;-71
2021/12/05 16:53:45;;;;;;;4.03;2.80;;;11.60;61.80;;;;;;5003530;28;20085;-71
2021/12/05 16:56:14;;;;;;;2.80;2.38;;;11.60;61.80;;;;;;5003657;28;20018;-73
2021/12/05 16:58:42;;;;;;;;;;;11.60;61.80;;;;;;5003986;28;20022;-73
2021/12/05 17:01:18;;;;;;;2.88;2.38;;;11.60;61.70;;;;;;5002131;28;19997;-73
2021/12/05 17:03:45;;;;;;;3.42;2.78;;;11.60;61.70;;;;;;5003458;28;20340;-72
2021/12/05 17:06:11;;;;;;;3.40;2.50;;;11.60;61.90;;;;;;5002260;28;20044;-72
2021/12/05 17:08:45;;;;;;;4.53;2.67;;;11.60;61.70;;;;;;5003419;28;20018;-73
2021/12/05 17:11:15;;;;;;;3.47;2.53;;;11.60;61.70;;;;;;5003407;28;20022;-70
2021/12/05 17:13:45;;;;;;;4.05;2.90;;;11.60;61.70;;;;;;5018520;28;20424;-71
2021/12/05 17:16:17;;;;;;;3.13;2.65;;;11.60;61.60;;;;;;5003302;28;20022;-72
2021/12/05 17:18:58;;;;;;;3.17;2.50;;;11.60;61.60;;;;;;5003186;28;20080;-72
2021/12/05 17:21:47;;;;;;;3.58;2.67;;;11.60;61.60;;;;;;5003042;28;20318;-71
2021/12/05 17:24:23;;;;;;;3.63;2.65;;;11.60;61.70;;;;;;5002051;28;20053;-71
2021/12/05 17:26:55;;;;;;;2.97;2.67;;;11.60;61.80;;;;;;5001879;28;20056;-71
2021/12/05 17:29:38;;;;;;;3.67;2.78;;;11.60;61.80;;;;;;5003101;28;20022;-70
2021/12/05 17:32:20;;;;;;;3.25;2.50;;;11.60;61.80;;;;;;5002151;28;20029;-72
2021/12/05 17:34:51;;;;;;;2.92;2.60;;;11.60;61.80;;;;;;5002911;28;20025;-71
2021/12/05 17:37:35;;;;;;;4.35;3.13;;;11.60;61.80;;;;;;5002962;28;20022;-72
2021/12/05 17:40:04;;;;;;;4.00;2.80;;;11.60;61.80;;;;;;5002971;28;20068;-70
2021/12/05 17:42:32;;;;;;;;;;;11.60;61.70;;;;;;5003310;28;20030;-73
2021/12/05 17:45:00;;;;;;;3.45;2.50;;;11.70;61.70;;;;;;5001598;28;19909;-71
2021/12/05 17:47:28;;;;;;;3.58;2.63;;;11.60;61.70;;;;;;5002741;28;20025;-71
2021/12/05 17:49:56;;;;;;;2.93;2.50;;;11.60;61.70;;;;;;5017893;28;20271;-71
2021/12/05 17:52:24;;;;;;;3.83;2.95;;;11.60;61.70;;;;;;5002605;28;20310;-71
2021/12/05 17:54:54;;;;;;;3.45;2.67;;;11.60;61.80;;;;;;5017580;28;20065;-69
2021/12/05 17:57:30;;;;;;;;;;;11.50;61.80;;;;;;5003083;28;20034;-72
2021/12/05 18:00:12;;;;;;;4.15;3.15;;;11.60;61.80;;;;;;5002488;28;20205;-71
2021/12/05 18:02:47;;;;;;;3.80;2.70;;;11.60;61.80;;;;;;5001062;28;20076;-72
2021/12/05 18:05:28;;;;;;;4.15;3.03;;;11.50;61.80;;;;;;5002376;28;20103;-71
2021/12/05 18:07:59;;;;;;;4.20;2.88;;;11.60;61.80;;;;;;5002345;28;20014;-72
2021/12/05 18:10:28;;;;;;;3.78;3.17;;;11.60;61.80;;;;;;5017424;28;20036;-72
2021/12/05 18:12:58;;;;;;;3.50;2.75;;;11.60;61.80;;;;;;5017428;28;20026;-71
2021/12/05 18:15:28;;;;;;;4.40;2.65;;;11.60;61.80;;;;;;5002710;28;20061;-71
2021/12/05 18:17:57;;;;;;;3.70;2.70;;;11.60;61.80;;;;;;5002168;28;20030;-72
2021/12/05 18:20:29;;;;;;;3.47;2.60;;;11.60;61.80;;;;;;5002128;28;20030;-72
2021/12/05 18:22:57;;;;;;;4.40;3.17;;;11.50;61.70;;;;;;5001991;28;20069;-72
2021/12/05 18:25:24;;;;;;;3.00;2.47;;;11.60;61.70;;;;;;5001950;28;20064;-71
2021/12/05 18:27:50;;;;;;;4.20;3.15;;;11.60;61.80;;;;;;5016987;28;20148;-71
2021/12/05 18:30:19;;;;;;;4.45;3.47;;;11.60;61.80;;;;;;5001882;28;20330;-71
2021/12/05 18:32:45;;;;;;;3.15;2.63;;;11.60;61.90;;;;;;5001849;28;20034;-71
2021/12/05 18:35:12;;;;;;;3.08;2.63;;;11.60;61.80;;;;;;5000609;28;20157;-72
2021/12/05 18:37:41;;;;;;;3.78;2.80;;;11.60;61.80;;;;;;5001802;28;20014;-71